Time;durP1;ratioP1;P1;durP2;ratioP2;P2;SDS_P1;SDS_P2;PMS_P1;PMS_P2;Temp;Humidity;BMP_temperature;BMP_pressure;BME280_temperature;BME280_humidity;BME280_pressure;Samples;Min_cycle;Max_cycle;Signal;HPM_P1;HPM_P2
2022/07/28 00:00:09;;;;;;;4.67;2.77;;;;;;;14.49;69.30;95563.82;1773904;80;21002;-65
2022/07/28 00:02:37;;;;;;;6.75;2.80;;;;;;;14.55;68.69;95558.78;1764867;80;21058;-65
2022/07/28 00:05:05;;;;;;;6.72;2.40;;;;;;;14.52;68.90;95554.41;1772514;80;21002;-65
2022/07/28 00:07:32;;;;;;;4.55;3.15;;;;;;;14.47;68.97;95554.57;1768747;80;21037;-65
2022/07/28 00:09:59;;;;;;;5.00;2.83;;;;;;;14.39;69.40;95551.75;1767723;80;21487;-65
2022/07/28 00:12:25;;;;;;;5.25;2.98;;;;;;;14.37;69.44;95555.80;1771554;80;21011;-65
2022/07/28 00:14:52;;;;;;;3.72;2.77;;;;;;;14.39;69.39;95558.39;1780259;80;21010;-65
2022/07/28 00:17:18;;;;;;;6.90;3.42;;;;;;;14.31;69.87;95553.34;1785745;80;21018;-65
2022/07/28 00:19:45;;;;;;;9.15;3.22;;;;;;;14.31;70.12;95557.33;1773753;80;21108;-65
2022/07/28 00:22:12;;;;;;;5.78;3.12;;;;;;;14.30;69.83;95562.23;1763604;80;21053;-66
2022/07/28 00:24:39;;;;;;;3.33;3.02;;;;;;;14.29;69.81;95560.05;1774096;80;21105;-65
2022/07/28 00:27:06;;;;;;;3.85;3.22;;;;;;;14.16;70.50;95561.39;1775560;80;21531;-66
2022/07/28 00:29:33;;;;;;;6.28;3.15;;;;;;;14.07;70.71;95562.53;1784038;80;21002;-66
2022/07/28 00:31:59;;;;;;;3.92;2.70;;;;;;;14.06;69.97;95555.94;1775394;80;20983;-65
2022/07/28 00:34:26;;;;;;;8.15;2.90;;;;;;;14.02;70.10;95554.33;1783207;80;21038;-65
2022/07/28 00:36:53;;;;;;;7.60;2.85;;;;;;;14.01;70.76;95549.92;1780826;80;21057;-65
2022/07/28 00:39:19;;;;;;;5.55;3.47;;;;;;;13.99;71.13;95553.97;1748509;80;21010;-65
2022/07/28 00:41:46;;;;;;;5.97;3.92;;;;;;;13.98;70.37;95548.70;1772043;80;21018;-65
2022/07/28 00:44:13;;;;;;;4.60;3.37;;;;;;;13.91;70.55;95548.05;1783962;80;20976;-65
2022/07/28 00:46:39;;;;;;;6.40;3.33;;;;;;;13.84;70.55;95546.05;1774264;80;21054;-65
2022/07/28 00:49:06;;;;;;;13.22;3.55;;;;;;;13.84;70.89;95551.35;1767701;80;21052;-65
2022/07/28 00:51:34;;;;;;;4.00;2.90;;;;;;;13.82;70.95;95549.20;1782557;80;21508;-65
2022/07/28 00:54:01;;;;;;;5.05;3.25;;;;;;;13.76;71.76;95552.52;1781712;80;21022;-65
2022/07/28 00:56:28;;;;;;;6.25;3.12;;;;;;;13.74;71.43;95545.94;1773891;80;20967;-65
2022/07/28 00:58:55;;;;;;;5.78;3.00;;;;;;;13.76;71.28;95546.75;1773427;80;20997;-65
2022/07/28 01:01:22;;;;;;;4.28;2.85;;;;;;;13.76;70.94;95541.92;1783363;80;21464;-65
2022/07/28 01:03:54;;;;;;;2.98;2.60;;;;;;;13.82;70.86;95544.36;1771307;80;21053;-65
2022/07/28 01:06:35;;;;;;;3.75;2.90;;;;;;;13.78;70.92;95548.91;1762674;80;21436;-65
2022/07/28 01:09:40;;;;;;;4.87;3.00;;;;;;;13.74;71.13;95552.56;1787577;80;21050;-65
2022/07/28 01:12:46;;;;;;;4.70;3.30;;;;;;;13.68;70.85;95547.44;1782629;80;21019;-65
2022/07/28 01:15:35;;;;;;;4.15;3.15;;;;;;;13.73;71.71;95545.97;1774393;80;21359;-65
2022/07/28 01:18:07;;;;;;;5.00;2.67;;;;;;;13.81;71.35;95548.80;1780889;80;21045;-65
2022/07/28 01:20:41;;;;;;;6.12;2.85;;;;;;;13.80;71.24;95540.42;1763751;80;21073;-65
2022/07/28 01:23:34;;;;;;;4.80;2.80;;;;;;;13.79;70.95;95537.38;1774810;80;21014;-65
2022/07/28 01:26:38;;;;;;;4.25;2.55;;;;;;;13.77;71.00;95537.88;1786239;80;21046;-65
2022/07/28 01:29:13;;;;;;;5.42;2.67;;;;;;;13.69;72.09;95538.58;1777328;80;21070;-65
2022/07/28 01:31:43;;;;;;;5.33;2.80;;;;;;;13.63;72.18;95533.45;1779133;80;21054;-65
2022/07/28 01:34:16;;;;;;;6.17;2.60;;;;;;;13.62;72.27;95537.03;1771839;80;21077;-65
2022/07/28 01:36:47;;;;;;;6.37;2.80;;;;;;;13.60;72.30;95538.39;1773107;80;21002;-65
2022/07/28 01:39:15;;;;;;;7.65;3.50;;;;;;;13.57;72.84;95540.29;1761941;80;21077;-65
2022/07/28 01:41:44;;;;;;;5.75;3.58;;;;;;;13.58;72.06;95539.36;1786084;80;21015;-65
2022/07/28 01:44:18;;;;;;;7.85;3.08;;;;;;;13.53;72.48;95535.98;1746863;80;21484;-65
2022/07/28 01:46:46;;;;;;;3.47;2.98;;;;;;;13.47;73.45;95534.40;1787035;80;21527;-65
2022/07/28 01:49:14;;;;;;;5.72;3.45;;;;;;;13.42;72.78;95535.86;1777059;80;21023;-65
2022/07/28 01:51:41;;;;;;;4.05;2.70;;;;;;;13.50;72.76;95536.95;1746232;80;21043;-65
2022/07/28 01:54:10;;;;;;;3.85;2.52;;;;;;;13.50;72.29;95540.92;1783819;80;21523;-65
2022/07/28 01:56:39;;;;;;;3.58;2.75;;;;;;;13.44;72.37;95549.08;1786322;80;21019;-65
2022/07/28 01:59:10;;;;;;;3.42;2.83;;;;;;;13.45;72.82;95548.16;1778725;80;21065;-65
2022/07/28 02:01:42;;;;;;;4.03;3.15;;;;;;;13.47;71.97;95541.49;1778112;80;21053;-65
2022/07/28 02:04:10;;;;;;;3.77;2.75;;;;;;;13.48;72.33;95541.89;1780365;80;21018;-65
2022/07/28 02:06:38;;;;;;;3.35;2.83;;;;;;;13.39;72.89;95541.72;1763732;80;21483;-65
2022/07/28 02:09:07;;;;;;;4.65;2.60;;;;;;;13.28;72.13;95540.73;1766260;80;21021;-65
2022/07/28 02:11:39;;;;;;;3.80;3.08;;;;;;;13.13;73.65;95547.78;1786922;80;21165;-65
2022/07/28 02:14:12;;;;;;;8.00;3.17;;;;;;;13.09;73.89;95548.77;1789620;80;20979;-65
2022/07/28 02:16:47;;;;;;;3.45;2.90;;;;;;;13.11;73.85;95549.14;1787863;80;21094;-65
2022/07/28 02:19:17;;;;;;;5.55;2.92;;;;;;;13.21;73.72;95546.62;1789206;80;21035;-65
2022/07/28 02:21:48;;;;;;;7.12;3.75;;;;;;;13.31;73.69;95552.56;1782838;80;21011;-65
2022/07/28 02:24:18;;;;;;;4.97;3.83;;;;;;;13.33;73.46;95550.73;1788491;80;21050;-65
2022/07/28 02:26:56;;;;;;;6.83;5.03;;;;;;;13.36;73.01;95551.96;1776720;80;21004;-65
2022/07/28 02:29:25;;;;;;;7.62;4.33;;;;;;;13.38;72.67;95551.47;1789374;80;21492;-66
2022/07/28 02:32:06;;;;;;;5.67;3.52;;;;;;;13.39;72.37;95550.54;1764115;80;21057;-65
2022/07/28 02:34:37;;;;;;;3.95;2.95;;;;;;;13.41;72.55;95554.02;1764514;80;21102;-65
2022/07/28 02:37:08;;;;;;;4.03;3.08;;;;;;;13.33;72.83;95552.06;1760059;80;21006;-65
2022/07/28 02:39:45;;;;;;;5.17;3.30;;;;;;;13.21;73.19;95554.58;1778970;80;21057;-65
2022/07/28 02:42:17;;;;;;;6.75;2.90;;;;;;;13.13;73.81;95553.94;1791194;80;21038;-65
2022/07/28 02:44:49;;;;;;;3.52;2.80;;;;;;;13.14;73.50;95554.80;1776856;80;21019;-65
2022/07/28 02:47:23;;;;;;;3.15;2.77;;;;;;;13.20;73.34;95555.50;1768519;80;21055;-65
2022/07/28 02:49:51;;;;;;;5.58;3.27;;;;;;;13.28;73.14;95559.72;1776730;80;21014;-65
2022/07/28 02:52:22;;;;;;;4.92;3.98;;;;;;;13.28;73.65;95560.61;1787063;80;20999;-65
2022/07/28 02:54:51;;;;;;;5.65;4.00;;;;;;;13.26;73.00;95566.38;1784972;80;20991;-65
2022/07/28 02:57:18;;;;;;;6.55;4.10;;;;;;;13.25;72.56;95569.91;1787684;80;21492;-65
2022/07/28 02:59:47;;;;;;;6.28;3.52;;;;;;;13.21;72.89;95566.96;1762277;80;21050;-65
2022/07/28 03:02:19;;;;;;;4.65;3.15;;;;;;;13.13;73.19;95571.16;1775525;80;21057;-65
2022/07/28 03:04:57;;;;;;;4.30;3.52;;;;;;;13.06;72.92;95576.68;1788619;80;21583;-65
2022/07/28 03:07:32;;;;;;;4.65;2.87;;;;;;;12.96;73.69;95578.25;1767643;80;21025;-65
2022/07/28 03:09:59;;;;;;;4.00;2.75;;;;;;;12.91;73.77;95577.52;1763929;80;20994;-65
2022/07/28 03:12:26;;;;;;;3.77;3.25;;;;;;;12.88;74.16;95573.64;1774531;80;20975;-65
2022/07/28 03:14:53;;;;;;;7.57;3.63;;;;;;;12.82;74.27;95577.76;1788522;80;21018;-65
2022/07/28 03:17:21;;;;;;;3.27;2.98;;;;;;;12.75;75.16;95582.38;1787040;80;21010;-65
2022/07/28 03:19:47;;;;;;;5.67;2.98;;;;;;;12.81;75.34;95586.63;1765405;80;21579;-65
2022/07/28 03:22:14;;;;;;;4.90;3.43;;;;;;;12.87;76.17;95585.58;1777240;80;21541;-65
2022/07/28 03:24:47;;;;;;;4.78;3.30;;;;;;;12.91;75.34;95588.57;1782734;80;21536;-65
2022/07/28 03:27:25;;;;;;;4.28;3.55;;;;;;;12.91;75.20;95588.11;1778337;80;21519;-65
2022/07/28 03:30:03;;;;;;;5.27;3.43;;;;;;;12.98;74.88;95587.49;1770496;80;21019;-65
2022/07/28 03:32:33;;;;;;;7.58;3.20;;;;;;;13.04;74.66;95587.77;1762455;80;21030;-65
2022/07/28 03:35:00;;;;;;;4.58;3.37;;;;;;;13.11;74.42;95588.87;1780582;80;21544;-65
2022/07/28 03:37:41;;;;;;;4.25;3.08;;;;;;;13.15;74.21;95594.51;1772537;80;21010;-65
2022/07/28 03:40:11;;;;;;;4.00;3.00;;;;;;;13.18;74.00;95591.77;1772382;80;21043;-65
2022/07/28 03:42:41;;;;;;;3.95;3.15;;;;;;;13.23;74.28;95595.61;1767174;80;20986;-65
2022/07/28 03:45:09;;;;;;;4.47;3.45;;;;;;;13.40;73.91;95592.48;1760157;80;21045;-65
2022/07/28 03:47:35;;;;;;;5.22;3.22;;;;;;;13.45;72.92;95596.32;1772942;80;20986;-66
2022/07/28 03:50:03;;;;;;;9.10;3.80;;;;;;;13.44;73.02;95592.81;1780083;80;21022;-65
2022/07/28 03:52:29;;;;;;;7.17;3.90;;;;;;;13.34;73.53;95593.53;1781758;80;21023;-65
2022/07/28 03:54:56;;;;;;;4.70;3.08;;;;;;;13.27;74.06;95598.59;1771602;80;21038;-66
2022/07/28 03:57:22;;;;;;;4.78;3.60;;;;;;;13.25;74.47;95591.11;1777459;80;21010;-65
2022/07/28 03:59:49;;;;;;;6.30;3.85;;;;;;;13.28;74.71;95592.41;1780308;80;21043;-65
2022/07/28 04:02:16;;;;;;;6.87;3.95;;;;;;;13.41;74.79;95597.75;1774599;80;20979;-65
2022/07/28 04:04:43;;;;;;;6.08;3.75;;;;;;;13.55;74.40;95593.34;1778223;80;21057;-65
2022/07/28 04:07:09;;;;;;;6.22;3.58;;;;;;;13.70;74.03;95600.43;1780151;80;21049;-66
2022/07/28 04:09:36;;;;;;;4.53;3.62;;;;;;;13.80;73.66;95592.13;1763816;80;20970;-65
2022/07/28 04:12:03;;;;;;;5.83;3.67;;;;;;;13.92;73.46;95594.01;1770039;80;21496;-65
2022/07/28 04:14:30;;;;;;;4.42;3.58;;;;;;;14.05;73.17;95587.38;1778452;80;21624;-65
2022/07/28 04:16:56;;;;;;;3.58;3.27;;;;;;;14.18;72.89;95589.17;1776043;80;21467;-66
2022/07/28 04:19:23;;;;;;;4.95;3.70;;;;;;;14.29;73.18;95584.40;1778317;80;21035;-65
2022/07/28 04:21:49;;;;;;;5.17;3.55;;;;;;;14.39;73.13;95583.17;1777198;80;21483;-66
2022/07/28 04:24:16;;;;;;;5.55;3.47;;;;;;;14.48;72.93;95578.86;1773020;80;21481;-65
2022/07/28 04:26:43;;;;;;;6.12;4.00;;;;;;;14.52;72.97;95578.31;1774306;80;21011;-65
2022/07/28 04:29:09;;;;;;;3.70;3.17;;;;;;;14.70;72.51;95583.48;1785214;80;21066;-65
2022/07/28 04:31:36;;;;;;;4.05;3.58;;;;;;;14.86;72.10;95583.33;1767451;80;21108;-65
2022/07/28 04:34:03;;;;;;;6.15;3.62;;;;;;;15.03;71.85;95587.19;1777568;80;21484;-65
2022/07/28 04:36:29;;;;;;;4.97;3.58;;;;;;;15.13;70.81;95577.48;1776683;80;21006;-66
2022/07/28 04:38:58;;;;;;;4.65;3.15;;;;;;;15.25;70.64;95584.15;1772889;80;20990;-66
2022/07/28 04:41:26;;;;;;;5.08;3.75;;;;;;;15.39;70.48;95578.77;1768960;80;21491;-65
2022/07/28 04:43:52;;;;;;;4.33;3.30;;;;;;;15.49;70.26;95573.51;1774588;80;21038;-65
2022/07/28 04:46:19;;;;;;;8.68;3.87;;;;;;;15.62;70.30;95581.41;1789848;80;21059;-66
2022/07/28 04:48:46;;;;;;;5.95;3.80;;;;;;;15.77;70.01;95580.87;1783544;80;21885;-66
2022/07/28 04:51:13;;;;;;;5.47;3.60;;;;;;;15.92;69.24;95582.03;1789307;80;21023;-66
2022/07/28 04:53:40;;;;;;;6.37;3.58;;;;;;;16.01;68.71;95579.48;1788673;80;21038;-65
2022/07/28 04:56:06;;;;;;;5.28;4.08;;;;;;;16.09;68.74;95588.50;1772546;80;21014;-65
2022/07/28 04:58:33;;;;;;;3.98;3.62;;;;;;;16.25;68.88;95592.25;1763726;80;21516;-65
2022/07/28 05:01:00;;;;;;;3.90;3.25;;;;;;;16.40;68.42;95586.77;1769396;80;21508;-65
2022/07/28 05:03:26;;;;;;;5.87;4.10;;;;;;;16.52;67.81;95586.25;1776296;80;20998;-65
2022/07/28 05:05:53;;;;;;;6.42;3.87;;;;;;;16.60;67.93;95590.78;1777193;80;21113;-65
2022/07/28 05:08:20;;;;;;;4.65;3.83;;;;;;;16.69;67.15;95587.36;1743071;81;21020;-65
2022/07/28 05:10:47;;;;;;;5.70;3.60;;;;;;;16.72;66.43;95584.08;1736878;81;21002;-65
2022/07/28 05:13:14;;;;;;;5.03;3.65;;;;;;;16.79;66.67;95579.39;1775922;80;21026;-65
2022/07/28 05:15:40;;;;;;;5.72;3.77;;;;;;;16.84;66.27;95582.73;1773786;80;21030;-65
2022/07/28 05:18:07;;;;;;;10.93;5.75;;;;;;;16.90;66.39;95577.12;1771565;80;20991;-65
2022/07/28 05:20:34;;;;;;;9.05;5.15;;;;;;;16.98;66.13;95578.11;1786570;80;21003;-66
2022/07/28 05:23:02;;;;;;;4.85;3.90;;;;;;;16.99;66.50;95578.06;1759747;80;21021;-65
2022/07/28 05:25:29;;;;;;;6.42;4.28;;;;;;;17.07;66.66;95579.91;1763809;80;21019;-65
2022/07/28 05:27:56;;;;;;;10.88;6.28;;;;;;;17.17;66.48;95573.70;1771761;80;21069;-65
2022/07/28 05:30:23;;;;;;;11.43;7.33;;;;;;;17.25;65.99;95576.03;1789864;80;21011;-65
2022/07/28 05:32:50;;;;;;;11.63;6.47;;;;;;;17.27;65.65;95578.16;1784195;80;21018;-65
2022/07/28 05:35:16;;;;;;;8.03;5.83;;;;;;;17.37;65.88;95579.47;1789711;80;21563;-65
2022/07/28 05:37:43;;;;;;;10.13;4.90;;;;;;;17.56;65.82;95582.14;1767966;80;21065;-65
2022/07/28 05:40:14;;;;;;;4.97;4.40;;;;;;;17.76;65.56;95582.55;1773490;80;20958;-66
2022/07/28 05:42:42;;;;;;;7.87;4.37;;;;;;;17.95;64.50;95577.26;1781205;80;21532;-65
2022/07/28 05:45:10;;;;;;;4.92;4.20;;;;;;;18.09;64.01;95575.24;1769477;80;21009;-65
2022/07/28 05:47:51;;;;;;;6.00;4.35;;;;;;;18.35;63.57;95573.52;1746265;80;21038;-66
2022/07/28 05:50:21;;;;;;;10.18;4.70;;;;;;;18.35;63.57;95573.52;1749934;80;21047;-66
2022/07/28 05:52:50;;;;;;;5.45;4.03;;;;;;;18.51;63.84;95578.95;1784442;80;21042;-65
2022/07/28 05:55:17;;;;;;;4.95;4.00;;;;;;;18.65;62.88;95585.39;1772836;80;20982;-66
2022/07/28 05:57:44;;;;;;;5.75;3.50;;;;;;;18.72;62.20;95586.38;1760133;80;21005;-65
2022/07/28 06:00:17;;;;;;;4.30;3.80;;;;;;;18.78;61.72;95586.08;1759849;80;21495;-66
2022/07/28 06:02:47;;;;;;;4.55;3.72;;;;;;;18.95;60.49;95585.67;1770100;80;21469;-66
2022/07/28 06:05:16;;;;;;;6.33;3.77;;;;;;;19.09;60.67;95587.64;1769275;80;21061;-66
2022/07/28 06:07:44;;;;;;;4.25;3.60;;;;;;;19.29;60.48;95592.80;1788964;80;21054;-66
2022/07/28 06:10:15;;;;;;;5.15;3.25;;;;;;;19.55;60.32;95589.20;1778414;80;21100;-66
2022/07/28 06:12:47;;;;;;;6.65;3.50;;;;;;;19.83;59.88;95580.56;1776396;80;21010;-66
2022/07/28 06:15:21;;;;;;;4.28;3.20;;;;;;;20.05;59.47;95579.75;1765412;80;21922;-65
2022/07/28 06:17:54;;;;;;;4.87;3.27;;;;;;;20.29;59.27;95576.17;1772130;80;20975;-65
2022/07/28 06:20:21;;;;;;;;;;;;;;;20.56;59.14;95577.37;1776605;80;21042;-65
2022/07/28 06:22:51;;;;;;;6.50;3.70;;;;;;;20.74;55.22;95577.66;1759988;80;20119;-66
2022/07/28 06:25:23;;;;;;;7.72;3.12;;;;;;;20.83;53.86;95578.43;1779832;80;21575;-65
2022/07/28 06:27:53;;;;;;;6.87;3.40;;;;;;;21.01;54.86;95580.48;1767939;80;21022;-66
2022/07/28 06:30:21;;;;;;;5.10;3.45;;;;;;;21.26;55.20;95577.67;1781992;80;21027;-66
2022/07/28 06:32:49;;;;;;;5.72;3.75;;;;;;;21.45;53.83;95579.65;1773099;80;21014;-66
2022/07/28 06:35:17;;;;;;;6.45;3.62;;;;;;;21.61;53.49;95580.41;1782121;80;21015;-66
2022/07/28 06:37:45;;;;;;;5.30;3.70;;;;;;;21.79;53.20;95572.16;1791225;80;21015;-66
2022/07/28 06:40:14;;;;;;;4.15;3.27;;;;;;;21.99;53.30;95562.83;1763068;80;21010;-66
2022/07/28 06:42:42;;;;;;;7.50;3.50;;;;;;;22.16;51.64;95564.44;1775817;80;21034;-66
2022/07/28 06:45:11;;;;;;;6.95;3.65;;;;;;;22.34;52.36;95567.30;1775815;80;21069;-66
2022/07/28 06:47:38;;;;;;;6.92;3.20;;;;;;;22.56;52.16;95565.89;1767307;80;21485;-65
2022/07/28 06:50:07;;;;;;;5.42;3.58;;;;;;;22.77;50.99;95567.62;1760034;80;21022;-65
2022/07/28 06:52:35;;;;;;;5.00;3.35;;;;;;;22.92;49.03;95567.06;1763980;80;21017;-65
2022/07/28 06:55:04;;;;;;;3.55;3.02;;;;;;;23.09;49.29;95563.63;1768794;80;21066;-65
2022/07/28 06:57:32;;;;;;;4.03;2.95;;;;;;;23.24;47.12;95560.86;1764078;80;20978;-66
2022/07/28 07:00:00;;;;;;;6.25;3.42;;;;;;;23.38;46.16;95559.88;1764085;80;21006;-65
2022/07/28 07:02:26;;;;;;;6.25;2.85;;;;;;;23.52;45.30;95567.87;1785655;80;21034;-66
2022/07/28 07:04:53;;;;;;;4.17;3.25;;;;;;;23.68;46.56;95560.90;1789750;80;21485;-65
2022/07/28 07:07:21;;;;;;;4.35;2.75;;;;;;;23.88;46.88;95565.75;1789438;80;21098;-66
2022/07/28 07:09:48;;;;;;;3.67;3.30;;;;;;;24.02;44.09;95562.57;1786912;80;21534;-66
2022/07/28 07:12:14;;;;;;;3.58;2.95;;;;;;;24.05;44.47;95569.94;1781736;80;21054;-66
2022/07/28 07:14:41;;;;;;;4.25;2.90;;;;;;;24.09;43.60;95563.36;1777419;80;21050;-66
2022/07/28 07:17:08;;;;;;;3.75;3.12;;;;;;;24.18;44.79;95566.72;1744123;80;21007;-66
2022/07/28 07:19:34;;;;;;;3.40;2.98;;;;;;;24.25;44.01;95568.98;1769223;80;21516;-65
2022/07/28 07:22:01;;;;;;;5.78;3.05;;;;;;;24.38;43.33;95568.44;1763438;80;20990;-66
2022/07/28 07:24:27;;;;;;;4.62;3.10;;;;;;;24.47;43.31;95564.22;1776323;80;21071;-66
2022/07/28 07:26:54;;;;;;;4.10;3.20;;;;;;;24.59;42.72;95566.90;1766442;80;21014;-66
2022/07/28 07:29:21;;;;;;;4.72;3.17;;;;;;;24.77;43.19;95571.86;1766741;80;21450;-66
2022/07/28 07:31:48;;;;;;;4.62;3.05;;;;;;;24.86;42.14;95571.67;1779632;80;21014;-66
2022/07/28 07:34:15;;;;;;;3.80;3.05;;;;;;;24.84;42.22;95563.67;1770668;80;21062;-66
2022/07/28 07:36:41;;;;;;;3.60;2.98;;;;;;;25.09;42.66;95561.31;1779010;80;21153;-66
2022/07/28 07:39:08;;;;;;;4.55;3.12;;;;;;;25.35;41.82;95561.17;1772748;80;21022;-66
2022/07/28 07:41:35;;;;;;;4.75;2.92;;;;;;;25.59;42.67;95559.26;1777085;80;21013;-66
2022/07/28 07:44:02;;;;;;;4.58;3.10;;;;;;;25.85;42.45;95557.20;1764012;80;21042;-66
2022/07/28 07:46:28;;;;;;;4.22;3.20;;;;;;;26.05;41.84;95556.11;1750219;80;20983;-66
2022/07/28 07:48:55;;;;;;;4.33;3.10;;;;;;;26.13;40.63;95559.04;1768121;80;21070;-65
2022/07/28 07:51:21;;;;;;;4.28;2.98;;;;;;;26.24;39.25;95559.05;1774541;80;21019;-66
2022/07/28 07:53:48;;;;;;;4.78;3.00;;;;;;;26.27;39.57;95556.58;1764782;80;21014;-65
2022/07/28 07:56:17;;;;;;;6.37;2.70;;;;;;;26.32;39.23;95557.06;1783753;80;21588;-65
2022/07/28 07:58:43;;;;;;;3.00;2.70;;;;;;;26.30;38.29;95551.77;1764548;80;21450;-65
2022/07/28 08:01:12;;;;;;;3.60;2.60;;;;;;;26.34;37.33;95551.05;1778679;80;21034;-65
2022/07/28 08:03:38;;;;;;;4.00;3.08;;;;;;;26.38;37.70;95557.90;1746754;80;21066;-66
2022/07/28 08:06:05;;;;;;;3.50;2.87;;;;;;;26.44;37.00;95563.33;1781010;80;21010;-66
2022/07/28 08:08:32;;;;;;;3.37;2.60;;;;;;;26.39;36.93;95561.49;1771223;80;21520;-66
2022/07/28 08:10:59;;;;;;;3.60;3.30;;;;;;;26.37;37.68;95564.31;1759530;80;21065;-66
2022/07/28 08:13:25;;;;;;;3.80;3.20;;;;;;;26.45;37.33;95567.23;1760440;80;21006;-66
2022/07/28 08:15:52;;;;;;;3.58;3.20;;;;;;;26.52;38.35;95574.37;1772961;80;21069;-66
2022/07/28 08:18:19;;;;;;;5.17;3.02;;;;;;;26.63;37.47;95573.51;1767647;80;21519;-66
2022/07/28 08:20:46;;;;;;;5.05;3.37;;;;;;;26.59;37.63;95572.06;1776028;80;21014;-65
2022/07/28 08:23:12;;;;;;;3.67;3.35;;;;;;;26.65;37.04;95576.95;1789940;80;21002;-65
2022/07/28 08:25:39;;;;;;;3.42;3.12;;;;;;;26.74;37.19;95578.41;1788317;80;21023;-65
2022/07/28 08:28:05;;;;;;;3.22;2.90;;;;;;;26.94;37.49;95574.03;1763633;80;21007;-66
2022/07/28 08:30:32;;;;;;;5.42;2.92;;;;;;;27.07;36.73;95574.35;1787878;80;20987;-66
2022/07/28 08:33:01;;;;;;;3.22;2.70;;;;;;;27.00;36.05;95579.42;1788236;80;21026;-65
2022/07/28 08:35:28;;;;;;;3.40;2.77;;;;;;;27.02;36.52;95581.50;1779530;80;21010;-65
2022/07/28 08:37:55;;;;;;;4.80;3.02;;;;;;;27.02;36.26;95576.09;1767263;80;20979;-66
2022/07/28 08:40:21;;;;;;;7.78;2.90;;;;;;;27.26;36.74;95577.73;1790841;80;21050;-66
2022/07/28 08:43:23;;;;;;;3.10;2.90;;;;;;;27.41;35.95;95579.12;1774056;80;21022;-66
2022/07/28 08:45:51;;;;;;;4.20;3.00;;;;;;;27.44;36.24;95576.14;1782981;80;20975;-66
2022/07/28 08:48:22;;;;;;;3.65;3.35;;;;;;;27.48;36.08;95583.02;1781983;80;21094;-65
2022/07/28 08:50:50;;;;;;;3.27;2.92;;;;;;;27.53;36.45;95578.06;1786880;80;21027;-66
2022/07/28 08:53:20;;;;;;;3.33;3.02;;;;;;;27.52;35.82;95575.50;1771842;80;21015;-65
2022/07/28 08:55:48;;;;;;;3.30;3.00;;;;;;;27.68;36.41;95578.59;1782653;80;21027;-66
2022/07/28 08:58:16;;;;;;;4.33;3.02;;;;;;;27.88;35.20;95563.83;1746661;79;21038;-66
2022/07/28 09:00:43;;;;;;;3.30;3.00;;;;;;;28.03;32.88;95574.17;1777919;80;21014;-65
2022/07/28 09:03:12;;;;;;;5.08;3.05;;;;;;;28.23;33.76;95564.76;1769456;80;21120;-65
2022/07/28 09:05:42;;;;;;;2.90;2.70;;;;;;;28.34;33.64;95563.28;1784318;80;21476;-65
2022/07/28 09:08:11;;;;;;;3.27;3.00;;;;;;;28.58;33.04;95563.47;1780740;80;21011;-66
2022/07/28 09:10:37;;;;;;;3.02;2.83;;;;;;;28.78;32.97;95560.26;1774156;80;21018;-66
2022/07/28 09:13:04;;;;;;;3.92;3.10;;;;;;;28.73;32.60;95563.42;1772136;80;21011;-65
2022/07/28 09:15:31;;;;;;;4.45;2.70;;;;;;;28.79;33.59;95567.42;1762557;80;21014;-65
2022/07/28 09:17:58;;;;;;;3.17;2.80;;;;;;;28.67;32.44;95568.89;1774349;80;21537;-65
2022/07/28 09:20:28;;;;;;;3.35;2.75;;;;;;;28.56;33.29;95561.39;1767093;80;21049;-65
2022/07/28 09:23:04;;;;;;;2.85;2.37;;;;;;;28.56;33.37;95561.39;1763331;80;21026;-65
2022/07/28 09:25:32;;;;;;;2.72;2.50;;;;;;;28.66;32.86;95567.19;1771348;80;21057;-65
2022/07/28 09:28:12;;;;;;;2.67;2.47;;;;;;;28.86;32.73;95567.23;1733811;80;21065;-66
2022/07/28 09:30:42;;;;;;;3.17;2.87;;;;;;;29.01;31.90;95571.23;1763792;80;21069;-66
2022/07/28 09:33:20;;;;;;;2.92;2.50;;;;;;;29.04;31.64;95562.80;1778144;80;21023;-66
2022/07/28 09:35:53;;;;;;;5.47;2.72;;;;;;;29.29;32.53;95564.63;1772943;80;21026;-68
2022/07/28 09:38:24;;;;;;;4.28;2.70;;;;;;;29.56;31.06;95559.80;1783444;80;20994;-68
2022/07/28 09:41:05;;;;;;;3.60;2.83;;;;;;;30.07;30.08;95561.77;1788198;80;21015;-66
2022/07/28 09:43:41;;;;;;;3.67;2.55;;;;;;;30.20;30.14;95565.84;1772118;80;21468;-66
2022/07/28 09:46:13;;;;;;;2.80;2.58;;;;;;;29.96;29.90;95569.10;1760185;80;20982;-67
2022/07/28 09:48:53;;;;;;;3.12;2.83;;;;;;;30.10;30.61;95566.39;1779731;80;20986;-67
2022/07/28 09:51:27;;;;;;;5.05;2.35;;;;;;;30.38;29.31;95566.45;1765934;80;21014;-66
2022/07/28 09:54:12;;;;;;;4.55;2.77;;;;;;;30.85;28.60;95565.50;1782103;80;21020;-66
2022/07/28 09:56:44;;;;;;;3.55;2.10;;;;;;;31.02;27.56;95564.63;1768018;80;21011;-66
2022/07/28 09:59:13;;;;;;;2.70;2.45;;;;;;;31.13;26.83;95564.93;1772549;80;21729;-66
2022/07/28 10:01:58;;;;;;;2.67;2.47;;;;;;;31.40;26.70;95562.63;1778490;80;21062;-66
2022/07/28 10:04:40;;;;;;;3.00;2.80;;;;;;;31.57;26.46;95561.75;1768461;80;21034;-67
2022/07/28 10:07:15;;;;;;;;;;;;;;;31.62;26.03;95566.22;1778100;80;21066;-66
2022/07/28 10:09:43;;;;;;;2.72;2.52;;;;;;;31.60;26.70;95570.13;1773423;80;20108;-66
2022/07/28 10:12:23;;;;;;;3.00;2.70;;;;;;;31.58;27.17;95564.84;1773903;80;21018;-67
2022/07/28 10:14:53;;;;;;;2.83;2.62;;;;;;;31.85;27.02;95565.22;1778084;80;21093;-66
2022/07/28 10:17:28;;;;;;;3.45;2.40;;;;;;;32.16;26.83;95555.20;1772128;80;21026;-67
2022/07/28 10:20:05;;;;;;;4.47;2.83;;;;;;;32.22;26.33;95555.89;1771851;80;21565;-66
2022/07/28 10:22:36;;;;;;;3.77;3.17;;;;;;;32.46;26.06;95559.27;1783994;80;21023;-67
2022/07/28 10:25:08;;;;;;;3.00;2.52;;;;;;;32.53;25.47;95547.18;1761465;80;21499;-67
2022/07/28 10:27:39;;;;;;;2.72;2.47;;;;;;;32.18;25.74;95546.82;1767640;80;21070;-66
2022/07/28 10:30:08;;;;;;;4.35;2.67;;;;;;;32.24;26.52;95546.19;1788334;80;21110;-66
2022/07/28 10:32:41;;;;;;;4.20;2.90;;;;;;;32.08;25.87;95549.19;1768411;80;21101;-67
2022/07/28 10:35:12;;;;;;;6.70;2.95;;;;;;;32.10;26.09;95546.27;1787644;80;21628;-67
2022/07/28 10:37:55;;;;;;;4.87;2.70;;;;;;;32.29;26.20;95545.19;1783376;80;21066;-66
2022/07/28 10:40:28;;;;;;;;;;;;;;;32.55;26.26;95542.41;1780041;80;21007;-67
2022/07/28 10:42:56;;;;;;;3.37;2.60;;;;;;;32.47;25.40;95539.63;1769006;80;20151;-66
2022/07/28 10:45:23;;;;;;;2.98;2.65;;;;;;;32.69;25.23;95540.42;1779309;80;21076;-66
2022/07/28 10:47:51;;;;;;;2.80;2.58;;;;;;;33.02;24.81;95535.06;1786807;80;21064;-67
2022/07/28 10:50:18;;;;;;;2.70;2.50;;;;;;;33.25;24.30;95534.41;1770454;80;21030;-67
2022/07/28 10:52:47;;;;;;;2.77;2.58;;;;;;;33.48;24.66;95534.06;1785809;80;21516;-67
2022/07/28 10:55:45;;;;;;;2.83;2.62;;;;;;;33.83;24.49;95534.23;1786138;80;21011;-67
2022/07/28 10:58:37;;;;;;;3.22;2.40;;;;;;;34.20;23.38;95530.59;1775465;80;21523;-67
2022/07/28 11:01:03;;;;;;;2.95;2.52;;;;;;;33.81;23.52;95527.22;1763627;80;20984;-67
2022/07/28 11:03:42;;;;;;;2.90;2.70;;;;;;;33.93;24.28;95526.35;1764040;80;21029;-66
2022/07/28 11:06:35;;;;;;;3.05;2.60;;;;;;;34.32;23.13;95522.83;1760043;80;21611;-67
2022/07/28 11:09:21;;;;;;;4.47;2.65;;;;;;;34.17;23.04;95522.70;1767796;80;21019;-67
2022/07/28 11:11:58;;;;;;;3.50;2.50;;;;;;;34.28;23.60;95520.97;1788544;80;21543;-67
2022/07/28 11:14:32;;;;;;;4.65;2.55;;;;;;;33.77;23.16;95514.93;1788045;80;21035;-67
2022/07/28 11:17:10;;;;;;;2.70;2.50;;;;;;;33.75;23.42;95515.09;1789266;80;21061;-67
2022/07/28 11:19:50;;;;;;;2.90;2.70;;;;;;;33.36;23.40;95514.39;1779297;80;21049;-67
2022/07/28 11:22:21;;;;;;;2.90;2.62;;;;;;;33.22;24.43;95513.73;1775205;80;21069;-67
2022/07/28 11:25:03;;;;;;;3.85;2.70;;;;;;;33.12;24.68;95512.52;1769356;80;21052;-67
2022/07/28 11:27:51;;;;;;;3.72;2.60;;;;;;;33.18;24.75;95514.56;1767215;80;21023;-67
2022/07/28 11:30:35;;;;;;;3.17;2.90;;;;;;;33.18;24.49;95511.83;1789640;80;21055;-67
2022/07/28 11:33:05;;;;;;;2.77;2.58;;;;;;;33.08;25.16;95515.76;1770852;80;21548;-67
2022/07/28 11:35:43;;;;;;;2.90;2.70;;;;;;;33.01;25.19;95511.95;1766087;80;21014;-66
2022/07/28 11:38:12;;;;;;;2.90;2.70;;;;;;;32.79;24.98;95512.11;1765020;80;21497;-67
2022/07/28 11:40:47;;;;;;;3.27;2.80;;;;;;;32.72;25.47;95506.45;1788376;80;21014;-67
2022/07/28 11:43:29;;;;;;;3.30;2.65;;;;;;;32.63;25.68;95512.91;1771618;80;21025;-66
2022/07/28 11:46:10;;;;;;;6.37;2.95;;;;;;;32.58;26.06;95510.66;1760385;80;21084;-67
2022/07/28 11:48:40;;;;;;;3.95;3.02;;;;;;;32.46;25.84;95509.25;1781343;80;20991;-66